Time;durP1;ratioP1;P1;durP2;ratioP2;P2;SDS_P1;SDS_P2;PMS_P1;PMS_P2;Temp;Humidity;BMP_temperature;BMP_pressure;BME280_temperature;BME280_humidity;BME280_pressure;Samples;Min_cycle;Max_cycle;Signal;HPM_P1;HPM_P2
2023/01/04 00:01:55;;;;;;;;;;;;;;;13.25;63.65;98300.34;4224317;28;5756;-70
2023/01/04 00:03:57;;;;;;;;;;;;;;;13.24;63.70;98286.22;4215726;28;5702;-70
2023/01/04 00:06:04;;;;;;;;;;;;;;;13.26;63.44;98288.75;4230482;28;6909;-70
2023/01/04 00:08:06;;;;;;;;;;;;;;;13.28;63.55;98292.03;4231265;28;5772;-70
2023/01/04 00:10:09;;;;;;;;;;;;;;;13.27;63.57;98291.22;4232529;28;5769;-70
2023/01/04 00:12:13;;;;;;;;;;;;;;;13.26;63.66;98292.22;4223853;28;5763;-70
2023/01/04 00:14:17;;;;;;;;;;;;;;;13.28;63.43;98276.13;4229492;28;5786;-70
2023/01/04 00:16:22;;;;;;;;;;;;;;;13.29;63.69;98278.59;4224045;27;5762;-70
2023/01/04 00:18:25;;;;;;;;;;;;;;;13.29;63.35;98278.59;4228039;28;5744;-70
2023/01/04 00:20:28;;;;;;;;;;;;;;;13.30;63.63;98276.75;4228138;27;5679;-70
2023/01/04 00:22:34;;;;;;;;;;;;;;;13.31;63.44;98276.59;4224167;28;5660;-70
2023/01/04 00:24:37;;;;;;;;;;;;;;;13.35;63.37;98269.09;4229237;28;5713;-70
2023/01/04 00:26:40;;;;;;;;;;;;;;;13.34;63.53;98276.22;4229084;28;5725;-69
2023/01/04 00:28:43;;;;;;;;;;;;;;;13.33;63.64;98274.56;4223435;28;5758;-70
2023/01/04 00:30:55;;;;;;;;;;;;;;;13.35;63.44;98267.25;4225148;27;5758;-70
2023/01/04 00:32:58;;;;;;;;;;;;;;;13.38;63.46;98266.94;4215902;28;5849;-70
2023/01/04 00:35:01;;;;;;;;;;;;;;;13.39;63.31;98265.09;4232597;28;5717;-70
2023/01/04 00:37:03;;;;;;;;;;;;;;;13.40;63.19;98272.06;4232273;28;5813;-70
2023/01/04 00:39:13;;;;;;;;;;;;;;;13.43;63.52;98263.72;4232900;27;5716;-70
2023/01/04 00:41:16;;;;;;;;;;;;;;;13.42;63.42;98274.53;4216743;28;5807;-70
2023/01/04 00:43:39;;;;;;;;;;;;;;;13.39;63.46;98275.72;4231524;28;5733;-69
2023/01/04 00:45:43;;;;;;;;;;;;;;;13.39;63.29;98275.72;4231116;27;5876;-69
2023/01/04 00:47:45;;;;;;;;;;;;;;;13.39;63.20;98278.38;4230635;27;5763;-70
2023/01/04 00:49:48;;;;;;;;;;;;;;;13.40;63.21;98280.03;4234335;27;5734;-70
2023/01/04 00:51:51;;;;;;;;;;;;;;;13.39;63.17;98279.19;4234285;28;5643;-70
2023/01/04 00:53:54;;;;;;;;;;;;;;;13.43;63.14;98278.84;4228896;27;5848;-70
2023/01/04 00:56:00;;;;;;;;;;;;;;;13.40;63.04;98275.53;4226680;28;5673;-69
2023/01/04 00:58:03;;;;;;;;;;;;;;;13.40;63.08;98277.38;4234599;28;5793;-70
2023/01/04 01:00:07;;;;;;;;;;;;;;;13.42;63.28;98269.22;4236665;28;5645;-69
2023/01/04 01:02:10;;;;;;;;;;;;;;;13.45;63.16;98271.53;4232768;28;5680;-70
2023/01/04 01:04:15;;;;;;;;;;;;;;;13.48;63.23;98266.72;4234429;28;5712;-69
2023/01/04 01:06:18;;;;;;;;;;;;;;;13.50;63.13;98263.88;4228452;27;5680;-70
2023/01/04 01:08:24;;;;;;;;;;;;;;;13.51;62.95;98269.00;4231529;28;5736;-70
2023/01/04 01:10:27;;;;;;;;;;;;;;;13.51;63.23;98265.53;4236956;28;5650;-69
2023/01/04 01:12:31;;;;;;;;;;;;;;;13.52;63.21;98268.00;4231724;27;5789;-70
2023/01/04 01:14:33;;;;;;;;;;;;;;;13.52;63.00;98259.19;4224905;28;6336;-70
2023/01/04 01:16:37;;;;;;;;;;;;;;;13.51;63.32;98265.53;4245387;27;6359;-70
2023/01/04 01:18:57;;;;;;;;;;;;;;;13.49;63.30;98267.53;4227563;28;5684;-69
2023/01/04 01:21:00;;;;;;;;;;;;;;;13.47;63.24;98258.88;4224509;28;5848;-69
2023/01/04 01:23:03;;;;;;;;;;;;;;;13.42;63.34;98256.78;4236485;27;5658;-70
2023/01/04 01:25:06;;;;;;;;;;;;;;;13.40;63.07;98262.25;4227840;28;5826;-69
2023/01/04 01:27:09;;;;;;;;;;;;;;;13.38;63.03;98261.63;4236122;28;5658;-70
2023/01/04 01:29:13;;;;;;;;;;;;;;;13.37;63.16;98273.25;4236113;28;5653;-69
2023/01/04 01:31:18;;;;;;;;;;;;;;;13.38;63.38;98271.41;4224705;28;5743;-70
2023/01/04 01:33:21;;;;;;;;;;;;;;;13.34;63.40;98270.91;4231348;28;5717;-69
2023/01/04 01:35:23;;;;;;;;;;;;;;;13.32;63.10;98272.91;4236084;28;5804;-69
2023/01/04 01:37:26;;;;;;;;;;;;;;;13.30;63.19;98272.28;4227840;28;5817;-69
2023/01/04 01:39:29;;;;;;;;;;;;;;;13.27;63.51;98275.28;4229297;27;5638;-69
2023/01/04 01:41:34;;;;;;;;;;;;;;;13.25;63.30;98274.63;4239032;27;5770;-69
2023/01/04 01:43:52;;;;;;;;;;;;;;;13.22;63.61;98279.44;4224779;28;5662;-70
2023/01/04 01:45:57;;;;;;;;;;;;;;;13.18;63.38;98275.47;4236281;28;5749;-69
2023/01/04 01:48:04;;;;;;;;;;;;;;;13.16;63.41;98286.25;4227595;28;5676;-69
2023/01/04 01:50:20;;;;;;;;;;;;;;;13.16;63.77;98282.78;4235625;28;5658;-70
2023/01/04 01:52:26;;;;;;;;;;;;;;;13.16;63.70;98282.78;4223575;28;5664;-69
2023/01/04 01:54:32;;;;;;;;;;;;;;;13.17;63.42;98279.94;4227713;28;5680;-69
2023/01/04 01:56:39;;;;;;;;;;;;;;;13.17;63.63;98295.06;4224668;28;5638;-69
2023/01/04 01:58:45;;;;;;;;;;;;;;;13.17;63.68;98292.41;4220584;28;5664;-69
2023/01/04 02:00:48;;;;;;;;;;;;;;;13.14;63.53;98301.53;4234738;28;5630;-69
2023/01/04 02:03:00;;;;;;;;;;;;;;;13.14;63.51;98304.19;4228074;28;5791;-70
2023/01/04 02:05:03;;;;;;;;;;;;;;;13.14;63.55;98306.84;4227751;28;5646;-70
2023/01/04 02:07:08;;;;;;;;;;;;;;;13.13;63.88;98307.81;4232198;28;5650;-70
2023/01/04 02:09:12;;;;;;;;;;;;;;;13.12;63.50;98306.19;4234536;27;5657;-70
2023/01/04 02:11:15;;;;;;;;;;;;;;;13.12;63.69;98306.19;4235415;28;5961;-69
2023/01/04 02:13:23;;;;;;;;;;;;;;;13.13;63.65;98300.69;4232517;28;5679;-69
2023/01/04 02:15:30;;;;;;;;;;;;;;;13.17;63.73;98311.00;4226939;28;5109;-69
2023/01/04 02:17:42;;;;;;;;;;;;;;;13.19;63.77;98317.81;4227173;28;8416;-70
2023/01/04 02:20:01;;;;;;;;;;;;;;;13.17;63.87;98306.50;4233973;28;5772;-69
2023/01/04 02:22:31;;;;;;;;;;;;;;;13.19;63.72;98304.53;4234206;28;5740;-69
2023/01/04 02:24:58;;;;;;;;;;;;;;;13.25;63.65;98313.63;4218472;28;5660;-69
2023/01/04 02:27:22;;;;;;;;;;;;;;;13.25;63.58;98309.16;4227086;28;5653;-70
2023/01/04 02:30:20;;;;;;;;;;;;;;;13.26;63.59;98300.19;4234883;27;5712;-71
2023/01/04 02:32:37;;;;;;;;;;;;;;;13.22;63.42;98308.66;4233608;27;5654;-69
2023/01/04 02:34:45;;;;;;;;;;;;;;;13.17;63.69;98311.81;4229206;28;5771;-68
2023/01/04 02:36:57;;;;;;;;;;;;;;;13.16;63.63;98304.84;4225892;28;5642;-68
2023/01/04 02:39:09;;;;;;;;;;;;;;;13.20;63.69;98300.88;4226302;28;5754;-69
2023/01/04 02:41:22;;;;;;;;;;;;;;;13.23;63.32;98305.81;4232673;28;5634;-69
2023/01/04 02:45:56;;;;;;;;;;;;;;;13.25;63.36;98298.53;4235266;28;6355;-69
2023/01/04 02:50:34;;;;;;;;;;;;;;;13.18;63.39;98292.22;4231504;28;5658;-69
2023/01/04 02:52:37;;;;;;;;;;;;;;;13.19;63.61;98293.91;4232297;28;5690;-69
2023/01/04 02:54:41;;;;;;;;;;;;;;;13.23;63.39;98284.59;4226567;27;6334;-69
2023/01/04 02:57:00;;;;;;;;;;;;;;;13.24;63.47;98296.03;4234171;28;5661;-69
2023/01/04 02:59:26;;;;;;;;;;;;;;;13.24;63.19;98291.53;4226361;28;5848;-69
2023/01/04 03:06:41;;;;;;;;;;;;;;;13.24;63.01;98288.88;4223129;27;5850;-69
2023/01/04 03:08:56;;;;;;;;;;;;;;;13.23;63.09;98284.59;4230594;28;5745;-69
2023/01/04 03:11:02;;;;;;;;;;;;;;;13.19;63.26;98287.78;4226271;28;5748;-69
2023/01/04 03:13:11;;;;;;;;;;;;;;;13.18;62.89;98281.59;4226747;28;5638;-69
2023/01/04 03:15:18;;;;;;;;;;;;;;;13.13;63.34;98297.22;4226362;28;5653;-69
2023/01/04 03:17:24;;;;;;;;;;;;;;;13.08;63.20;98294.25;4226317;28;6482;-69
2023/01/04 03:21:51;;;;;;;;;;;;;;;13.05;63.06;98291.94;4225896;28;7672;-69
2023/01/04 03:36:16;;;;;;;;;;;;;;;13.01;63.45;98295.94;4226397;28;5666;-69
2023/01/04 03:48:28;;;;;;;;;;;;;;;13.11;63.22;98280.63;4242891;27;5788;-69
2023/01/04 03:50:38;;;;;;;;;;;;;;;13.12;62.98;98277.78;4229471;28;5684;-69
2023/01/04 03:52:44;;;;;;;;;;;;;;;13.11;63.00;98281.44;4231755;28;6345;-69
2023/01/04 03:54:49;;;;;;;;;;;;;;;13.16;62.97;98277.47;4227397;28;5775;-69
2023/01/04 03:56:54;;;;;;;;;;;;;;;13.14;63.17;98275.00;4226094;28;5668;-69
2023/01/04 03:58:57;;;;;;;;;;;;;;;13.15;63.23;98278.47;4225944;28;5630;-69
2023/01/04 04:01:02;;;;;;;;;;;;;;;13.15;62.98;98271.34;4232180;28;5605;-68
2023/01/04 04:03:11;;;;;;;;;;;;;;;13.14;63.39;98275.00;4237557;27;5734;-69
2023/01/04 04:10:00;;;;;;;;;;;;;;;13.15;62.90;98259.88;4225627;28;5642;-69
2023/01/04 04:12:02;;;;;;;;;;;;;;;13.13;63.16;98258.19;4230439;27;5683;-69
2023/01/04 04:14:05;;;;;;;;;;;;;;;13.12;63.07;98266.34;4217064;28;5880;-69
2023/01/04 04:16:08;;;;;;;;;;;;;;;13.12;63.23;98255.72;4218789;28;5743;-69
2023/01/04 04:18:11;;;;;;;;;;;;;;;13.12;63.09;98250.41;4234045;27;5658;-69
2023/01/04 04:20:14;;;;;;;;;;;;;;;13.11;63.04;98251.41;4233700;28;5694;-69
2023/01/04 04:22:16;;;;;;;;;;;;;;;13.13;63.03;98252.06;4231154;28;6358;-70
2023/01/04 04:24:21;;;;;;;;;;;;;;;13.16;63.08;98248.25;4242720;27;5625;-69
2023/01/04 04:26:26;;;;;;;;;;;;;;;13.18;63.11;98255.03;4241712;27;5646;-69
2023/01/04 04:28:28;;;;;;;;;;;;;;;13.20;63.09;98261.03;4228684;28;5654;-69
2023/01/04 04:30:31;;;;;;;;;;;;;;;13.22;62.98;98250.25;4223917;27;6506;-69
2023/01/04 04:32:34;;;;;;;;;;;;;;;13.19;63.00;98251.41;4220301;28;5695;-70
2023/01/04 04:34:37;;;;;;;;;;;;;;;13.17;63.25;98258.72;4228770;28;5660;-70
2023/01/04 04:36:39;;;;;;;;;;;;;;;13.12;63.28;98259.22;4219970;28;5748;-70
2023/01/04 04:38:42;;;;;;;;;;;;;;;13.09;63.19;98253.44;4220118;27;5117;-69
2023/01/04 04:43:09;;;;;;;;;;;;;;;13.05;63.43;98255.59;4221255;28;5675;-69
2023/01/04 04:45:11;;;;;;;;;;;;;;;13.05;63.11;98255.59;4237140;28;5646;-70
2023/01/04 04:47:14;;;;;;;;;;;;;;;13.06;63.40;98246.63;4236740;28;6462;-70
2023/01/04 04:49:18;;;;;;;;;;;;;;;13.07;63.17;98252.78;4228234;28;5658;-69
2023/01/04 04:51:21;;;;;;;;;;;;;;;13.06;63.32;98259.09;4232884;27;5873;-69
2023/01/04 04:53:23;;;;;;;;;;;;;;;13.06;63.40;98264.41;4220117;27;5668;-70
2023/01/04 04:55:26;;;;;;;;;;;;;;;13.09;63.35;98264.03;4220210;28;5680;-70
2023/01/04 04:57:29;;;;;;;;;;;;;;;13.08;63.28;98265.06;4228337;28;6357;-69
2023/01/04 04:59:35;;;;;;;;;;;;;;;13.02;63.43;98261.28;4231234;28;5642;-69
2023/01/04 05:01:37;;;;;;;;;;;;;;;12.99;63.39;98266.09;4230751;28;5668;-69
2023/01/04 05:03:40;;;;;;;;;;;;;;;13.01;63.42;98272.03;4234564;28;5722;-70
2023/01/04 05:05:43;;;;;;;;;;;;;;;13.02;63.10;98268.38;4244042;27;5753;-69
2023/01/04 05:07:46;;;;;;;;;;;;;;;13.01;63.18;98266.72;4221014;28;5751;-69
2023/01/04 05:09:48;;;;;;;;;;;;;;;12.98;63.63;98275.88;4219695;28;5743;-70
2023/01/04 05:14:14;;;;;;;;;;;;;;;12.96;63.43;98277.06;4236883;27;6354;-69
2023/01/04 05:16:18;;;;;;;;;;;;;;;12.93;63.33;98278.22;4225050;28;5781;-69
2023/01/04 05:18:22;;;;;;;;;;;;;;;12.92;63.52;98275.75;4233792;27;5672;-70
2023/01/04 05:20:25;;;;;;;;;;;;;;;12.90;63.67;98277.72;4223473;28;5646;-70
2023/01/04 05:22:28;;;;;;;;;;;;;;;12.90;63.43;98283.03;4236533;28;5642;-69
2023/01/04 05:24:30;;;;;;;;;;;;;;;12.88;63.34;98283.22;4223280;28;5750;-69
2023/01/04 05:26:33;;;;;;;;;;;;;;;12.86;63.69;98284.38;4223545;28;5693;-70
2023/01/04 05:28:36;;;;;;;;;;;;;;;12.86;63.51;98281.72;4230651;28;5761;-69
2023/01/04 05:30:50;;;;;;;;;;;;;;;12.86;63.75;98287.03;4237178;27;5642;-70
2023/01/04 05:32:54;;;;;;;;;;;;;;;12.86;63.75;98289.69;4232090;28;5766;-69
2023/01/04 05:34:56;;;;;;;;;;;;;;;12.90;63.61;98291.00;4221881;28;5667;-70
2023/01/04 05:36:59;;;;;;;;;;;;;;;12.93;63.61;98288.84;4227279;28;5725;-70
2023/01/04 05:39:02;;;;;;;;;;;;;;;12.95;63.40;98297.47;4235835;28;5650;-70
2023/01/04 05:42:23;;;;;;;;;;;;;;;12.91;63.41;98290.00;4235757;28;5769;-69
2023/01/04 05:43:28;;;;;;;;;;;;;;;12.91;63.62;98292.66;4235711;27;5654;-69
2023/01/04 05:45:31;;;;;;;;;;;;;;;12.94;63.67;98297.63;4236122;28;5756;-69
2023/01/04 05:47:34;;;;;;;;;;;;;;;12.97;63.67;98292.81;4233744;28;5650;-69
2023/01/04 05:49:41;;;;;;;;;;;;;;;12.98;63.61;98296.28;4232522;27;5647;-70
2023/01/04 05:51:44;;;;;;;;;;;;;;;13.00;63.49;98296.94;4229753;28;5653;-69
2023/01/04 05:53:47;;;;;;;;;;;;;;;13.02;63.36;98302.91;4233787;28;5642;-70
2023/01/04 05:55:49;;;;;;;;;;;;;;;13.02;63.22;98301.09;4226720;28;5684;-70
2023/01/04 05:57:53;;;;;;;;;;;;;;;13.00;63.47;98310.22;4238600;27;5666;-70
2023/01/04 05:59:56;;;;;;;;;;;;;;;12.97;63.59;98305.25;4225888;28;5650;-70
2023/01/04 06:02:01;;;;;;;;;;;;;;;12.96;63.65;98303.59;4233796;28;5766;-70
2023/01/04 06:04:04;;;;;;;;;;;;;;;12.97;63.54;98299.94;4235264;27;5717;-69
2023/01/04 06:06:09;;;;;;;;;;;;;;;12.99;63.70;98304.06;4227176;27;5668;-69
2023/01/04 06:08:12;;;;;;;;;;;;;;;13.01;63.74;98301.25;4237732;27;5877;-69
2023/01/04 06:10:17;;;;;;;;;;;;;;;13.02;63.35;98308.19;4232950;28;5634;-70
2023/01/04 06:12:22;;;;;;;;;;;;;;;13.04;63.45;98303.56;4230240;28;5766;-69
2023/01/04 06:14:25;;;;;;;;;;;;;;;13.03;63.41;98288.66;4222671;28;5920;-69
2023/01/04 06:16:27;;;;;;;;;;;;;;;13.01;63.47;98293.28;4231139;27;7233;-69
2023/01/04 06:18:30;;;;;;;;;;;;;;;12.97;63.71;98297.28;4235083;28;5654;-69
2023/01/04 06:20:33;;;;;;;;;;;;;;;12.94;63.56;98284.38;4226796;27;5642;-70
2023/01/04 06:22:39;;;;;;;;;;;;;;;12.93;63.58;98293.31;4233960;27;5958;-70
2023/01/04 06:24:42;;;;;;;;;;;;;;;12.93;63.73;98285.38;4238198;27;5617;-69
2023/01/04 06:26:45;;;;;;;;;;;;;;;12.94;63.50;98289.66;4234425;28;5605;-69
2023/01/04 06:28:47;;;;;;;;;;;;;;;12.93;63.43;98290.69;4235404;28;5092;-69
2023/01/04 06:30:50;;;;;;;;;;;;;;;12.93;63.66;98302.13;4234054;28;5641;-69
2023/01/04 06:32:53;;;;;;;;;;;;;;;12.91;63.51;98301.47;4236813;27;5653;-70
2023/01/04 06:34:56;;;;;;;;;;;;;;;12.90;63.65;98293.66;4233686;28;5709;-69
2023/01/04 06:36:58;;;;;;;;;;;;;;;12.91;63.54;98304.13;4226714;28;5115;-70
2023/01/04 06:39:03;;;;;;;;;;;;;;;12.94;63.49;98302.94;4219211;28;5759;-70
2023/01/04 06:41:05;;;;;;;;;;;;;;;12.98;63.46;98307.72;4233542;28;5702;-69
2023/01/04 06:43:08;;;;;;;;;;;;;;;13.00;63.50;98304.91;4219364;28;5675;-69
2023/01/04 06:45:11;;;;;;;;;;;;;;;12.99;63.47;98303.25;4224568;28;5759;-69
2023/01/04 06:47:14;;;;;;;;;;;;;;;12.98;63.62;98307.72;4228170;28;5650;-69
2023/01/04 06:49:17;;;;;;;;;;;;;;;13.00;63.52;98311.03;4223303;27;5777;-69
2023/01/04 06:51:20;;;;;;;;;;;;;;;13.00;63.24;98312.84;4217512;28;5653;-69
2023/01/04 06:53:22;;;;;;;;;;;;;;;12.99;63.26;98313.88;4230024;28;5642;-70
2023/01/04 06:55:28;;;;;;;;;;;;;;;13.00;63.47;98315.50;4226501;28;5658;-69
2023/01/04 06:57:31;;;;;;;;;;;;;;;12.96;63.45;98320.34;4229653;28;5696;-69
2023/01/04 06:59:34;;;;;;;;;;;;;;;12.99;63.51;98319.16;4226027;28;5671;-70
2023/01/04 07:01:37;;;;;;;;;;;;;;;12.98;63.33;98317.53;4232119;28;5650;-69
2023/01/04 07:03:39;;;;;;;;;;;;;;;12.94;63.28;98324.19;4234539;28;5638;-69
2023/01/04 07:05:42;;;;;;;;;;;;;;;12.91;63.40;98329.81;4226275;28;5653;-70
2023/01/04 07:07:45;;;;;;;;;;;;;;;12.91;63.62;98327.16;4226062;28;5745;-70
2023/01/04 07:09:48;;;;;;;;;;;;;;;12.93;63.40;98327.84;4226354;27;5770;-70
2023/01/04 07:11:52;;;;;;;;;;;;;;;12.94;63.55;98329.50;4232704;28;5678;-69
2023/01/04 07:13:54;;;;;;;;;;;;;;;12.96;63.42;98330.13;4226018;28;5871;-70
2023/01/04 07:15:57;;;;;;;;;;;;;;;12.96;63.45;98335.44;4226673;28;5653;-70
2023/01/04 07:18:00;;;;;;;;;;;;;;;13.00;63.33;98329.63;4225985;28;5688;-69
2023/01/04 07:20:03;;;;;;;;;;;;;;;13.02;63.36;98334.75;4226218;28;5680;-69
2023/01/04 07:22:06;;;;;;;;;;;;;;;12.97;63.52;98343.25;4233271;28;5833;-69
2023/01/04 07:24:09;;;;;;;;;;;;;;;12.95;63.25;98350.56;4217478;27;5920;-69
2023/01/04 07:26:12;;;;;;;;;;;;;;;12.97;63.54;98347.72;4217756;28;5672;-69
2023/01/04 07:29:13;;;;;;;;;;;;;;;12.94;63.38;98356.03;4228548;28;5748;-69
2023/01/04 07:30:39;;;;;;;;;;;;;;;12.92;63.23;98356.22;4233931;28;5669;-69
2023/01/04 07:32:42;;;;;;;;;;;;;;;12.89;63.51;98353.03;4228036;28;5755;-69
2023/01/04 07:34:45;;;;;;;;;;;;;;;12.86;63.42;98356.03;4224408;28;5749;-70
2023/01/04 07:36:48;;;;;;;;;;;;;;;12.83;63.51;98351.91;4227097;27;5788;-69
2023/01/04 07:38:51;;;;;;;;;;;;;;;12.82;63.40;98361.69;4231804;28;5666;-69
2023/01/04 07:40:54;;;;;;;;;;;;;;;12.83;63.39;98359.88;4232107;28;5650;-68
2023/01/04 07:42:59;;;;;;;;;;;;;;;12.83;63.47;98363.34;4217512;28;5659;-70
2023/01/04 07:45:04;;;;;;;;;;;;;;;12.81;63.50;98365.34;4232305;28;5634;-69
2023/01/04 07:47:07;;;;;;;;;;;;;;;12.85;63.62;98365.00;4226200;28;5666;-69
2023/01/04 07:49:11;;;;;;;;;;;;;;;12.85;63.29;98359.69;4218504;28;6359;-69
2023/01/04 07:51:19;;;;;;;;;;;;;;;12.80;63.56;98361.03;4225714;28;5630;-69
2023/01/04 07:53:22;;;;;;;;;;;;;;;12.79;63.40;98359.34;4224350;28;5866;-69
2023/01/04 07:55:25;;;;;;;;;;;;;;;12.78;63.50;98357.69;4227192;28;5662;-69
2023/01/04 07:57:27;;;;;;;;;;;;;;;12.79;63.36;98366.50;4232281;28;5745;-69
2023/01/04 07:59:30;;;;;;;;;;;;;;;12.78;63.37;98357.69;4231082;28;5642;-69
2023/01/04 08:01:36;;;;;;;;;;;;;;;12.76;63.74;98367.66;4230669;28;5654;-68
2023/01/04 08:03:41;;;;;;;;;;;;;;;12.77;63.61;98357.88;4233620;27;5684;-68
2023/01/04 08:05:44;;;;;;;;;;;;;;;12.76;63.33;98362.34;4226734;28;5634;-69
2023/01/04 08:07:49;;;;;;;;;;;;;;;12.74;63.42;98367.00;4238169;28;5768;-68
2023/01/04 08:09:52;;;;;;;;;;;;;;;12.75;63.32;98366.00;4223445;28;5671;-68
2023/01/04 08:11:55;;;;;;;;;;;;;;;12.76;63.52;98370.31;4235129;28;5786;-68
2023/01/04 08:13:58;;;;;;;;;;;;;;;12.77;63.31;98369.31;4229919;27;5668;-68
2023/01/04 08:16:01;;;;;;;;;;;;;;;12.80;63.47;98366.34;4227793;28;5744;-68
2023/01/04 08:18:05;;;;;;;;;;;;;;;12.83;63.48;98362.53;4236291;28;5673;-68
2023/01/04 08:20:09;;;;;;;;;;;;;;;12.81;63.17;98360.03;4230114;28;5761;-68
2023/01/04 08:22:13;;;;;;;;;;;;;;;12.79;63.62;98356.69;4236356;27;5613;-68
2023/01/04 08:24:17;;;;;;;;;;;;;;;12.81;63.32;98359.22;4225744;28;5734;-68
2023/01/04 08:26:21;;;;;;;;;;;;;;;12.81;63.47;98364.53;4231836;28;5750;-69
2023/01/04 08:28:24;;;;;;;;;;;;;;;12.80;63.41;98369.00;4233961;28;5662;-68
2023/01/04 08:30:26;;;;;;;;;;;;;;;12.79;63.29;98364.66;4233857;28;5794;-69
2023/01/04 08:32:29;;;;;;;;;;;;;;;12.78;63.51;98365.66;4236056;28;5708;-69
2023/01/04 08:34:33;;;;;;;;;;;;;;;12.78;63.38;98378.09;4235254;28;5794;-69
2023/01/04 08:36:45;;;;;;;;;;;;;;;12.76;63.71;98372.16;4236259;28;5769;-69
2023/01/04 08:38:48;;;;;;;;;;;;;;;12.76;63.53;98372.97;4230639;28;5757;-68
2023/01/04 08:41:06;;;;;;;;;;;;;;;12.78;63.33;98384.25;4223580;28;5726;-70
2023/01/04 08:43:29;;;;;;;;;;;;;;;12.80;63.62;98382.28;4231891;28;5891;-70
2023/01/04 08:45:32;;;;;;;;;;;;;;;12.84;63.60;98390.72;4235007;28;5829;-70
2023/01/04 08:47:34;;;;;;;;;;;;;;;12.82;63.35;98387.41;4234599;28;5907;-70
2023/01/04 08:49:39;;;;;;;;;;;;;;;12.80;63.65;98400.84;4237251;27;5803;-70
2023/01/04 08:51:42;;;;;;;;;;;;;;;12.77;63.51;98395.84;4234606;27;5646;-68
2023/01/04 08:53:45;;;;;;;;;;;;;;;12.75;63.31;98397.84;4235547;28;5757;-70
2023/01/04 08:55:51;;;;;;;;;;;;;;;12.73;63.59;98393.72;4235381;28;5748;-70
2023/01/04 08:57:54;;;;;;;;;;;;;;;12.73;63.64;98388.41;4228543;27;5676;-69
2023/01/04 08:59:57;;;;;;;;;;;;;;;12.72;63.72;98392.06;4235121;27;5678;-69
2023/01/04 09:01:59;;;;;;;;;;;;;;;12.70;63.69;98378.16;4235349;28;5649;-69
2023/01/04 09:04:08;;;;;;;;;;;;;;;12.78;63.49;98378.94;4233117;28;5645;-69
2023/01/04 09:06:13;;;;;;;;;;;;;;;12.79;63.17;98377.94;4236262;28;5646;-69
2023/01/04 09:08:16;;;;;;;;;;;;;;;12.78;63.61;98376.28;4232430;27;5642;-69
2023/01/04 09:10:19;;;;;;;;;;;;;;;12.78;63.48;98370.16;4234720;28;5780;-69
2023/01/04 09:12:21;;;;;;;;;;;;;;;12.74;63.67;98374.97;4232768;27;5858;-69
2023/01/04 09:14:24;;;;;;;;;;;;;;;12.72;63.34;98376.97;4219876;28;5753;-69
2023/01/04 09:16:27;;;;;;;;;;;;;;;12.68;63.31;98378.28;4225289;28;5740;-69
2023/01/04 09:18:31;;;;;;;;;;;;;;;12.70;63.31;98376.31;4232808;27;5634;-69
2023/01/04 09:20:34;;;;;;;;;;;;;;;12.71;63.41;98367.34;4225182;28;5765;-69
2023/01/04 09:22:38;;;;;;;;;;;;;;;12.72;63.43;98376.97;4231055;28;5666;-69
2023/01/04 09:24:41;;;;;;;;;;;;;;;12.73;63.35;98375.97;4235347;28;5617;-69
2023/01/04 09:26:46;;;;;;;;;;;;;;;12.74;63.52;98376.78;4235113;28;5777;-70
2023/01/04 09:28:49;;;;;;;;;;;;;;;12.76;63.52;98385.41;4236747;27;5664;-70
2023/01/04 09:30:52;;;;;;;;;;;;;;;12.79;63.30;98383.25;4227378;27;5650;-70
2023/01/04 09:32:55;;;;;;;;;;;;;;;12.78;63.19;98381.59;4227952;27;5646;-70
2023/01/04 09:34:57;;;;;;;;;;;;;;;12.78;63.17;98381.59;4228042;28;5737;-70
2023/01/04 09:37:00;;;;;;;;;;;;;;;12.77;63.18;98385.25;4236155;28;5682;-70
2023/01/04 09:39:05;;;;;;;;;;;;;;;12.81;63.26;98385.75;4234712;27;5673;-70
2023/01/04 09:41:16;;;;;;;;;;;;;;;12.83;63.31;98387.25;4227537;27;5766;-70
2023/01/04 09:43:22;;;;;;;;;;;;;;;12.85;63.38;98391.53;4226450;27;5680;-70
2023/01/04 09:45:28;;;;;;;;;;;;;;;12.85;63.22;98389.72;4240276;27;5646;-70
2023/01/04 09:47:37;;;;;;;;;;;;;;;12.88;63.13;98396.50;4223061;28;5684;-70
2023/01/04 09:49:45;;;;;;;;;;;;;;;12.89;63.28;98399.00;4233831;28;5670;-69
2023/01/04 09:51:56;;;;;;;;;;;;;;;12.91;62.79;98398.81;4227175;28;5770;-69
2023/01/04 09:54:04;;;;;;;;;;;;;;;12.90;63.03;98400.66;4235528;28;5745;-69
2023/01/04 09:56:17;;;;;;;;;;;;;;;12.94;62.82;98406.47;4234273;28;5812;-70
2023/01/04 09:58:26;;;;;;;;;;;;;;;13.00;62.91;98405.78;4227407;28;5676;-69
2023/01/04 10:00:33;;;;;;;;;;;;;;;13.00;62.77;98397.81;4230211;28;5728;-69
2023/01/04 10:02:48;;;;;;;;;;;;;;;12.99;62.55;98401.47;4234157;28;5613;-69
2023/01/04 10:04:51;;;;;;;;;;;;;;;12.96;62.89;98405.28;4229385;28;5770;-70
2023/01/04 10:06:54;;;;;;;;;;;;;;;12.93;62.77;98399.50;4234027;28;5651;-70
2023/01/04 10:09:11;;;;;;;;;;;;;;;12.98;62.72;98397.16;4228469;28;5665;-69
2023/01/04 10:11:27;;;;;;;;;;;;;;;13.01;62.76;98392.31;4229486;28;5733;-70
2023/01/04 10:13:48;;;;;;;;;;;;;;;12.99;62.67;98388.19;4233127;28;5941;-69
2023/01/04 10:16:00;;;;;;;;;;;;;;;12.98;62.57;98382.06;4233929;27;6371;-70
2023/01/04 10:18:16;;;;;;;;;;;;;;;13.02;62.76;98382.53;4234746;27;5705;-69
2023/01/04 10:21:07;;;;;;;;;;;;;;;13.05;62.59;98371.59;4231593;28;5721;-70
2023/01/04 10:23:50;;;;;;;;;;;;;;;13.06;62.44;98378.56;4219692;28;5730;-69
2023/01/04 10:25:57;;;;;;;;;;;;;;;13.06;62.60;98370.59;4231326;28;5716;-70
2023/01/04 10:28:28;;;;;;;;;;;;;;;13.09;62.43;98370.25;4219401;28;5743;-70
2023/01/04 10:30:40;;;;;;;;;;;;;;;13.08;62.69;98372.06;4226170;28;5817;-69
2023/01/04 10:32:44;;;;;;;;;;;;;;;13.07;62.60;98365.13;4233890;28;7113;-69
2023/01/04 10:34:48;;;;;;;;;;;;;;;13.07;62.58;98366.94;4235310;28;5654;-70
2023/01/04 10:36:53;;;;;;;;;;;;;;;13.03;62.51;98355.03;4224204;28;5703;-70
2023/01/04 10:39:00;;;;;;;;;;;;;;;12.99;62.49;98357.16;4235094;28;5651;-70
2023/01/04 10:41:10;;;;;;;;;;;;;;;12.99;62.74;98351.03;4224690;28;6166;-69
2023/01/04 10:43:21;;;;;;;;;;;;;;;12.99;62.60;98345.72;4234202;28;5649;-69
2023/01/04 10:45:35;;;;;;;;;;;;;;;13.05;62.52;98334.44;4231083;28;5717;-70
2023/01/04 10:47:50;;;;;;;;;;;;;;;13.09;62.30;98341.03;4218190;28;5866;-70
2023/01/04 10:49:56;;;;;;;;;;;;;;;13.10;62.37;98335.56;4229089;28;5765;-70
2023/01/04 10:52:02;;;;;;;;;;;;;;;13.07;62.37;98338.56;4222586;28;5792;-70
2023/01/04 10:54:11;;;;;;;;;;;;;;;13.05;62.29;98345.06;4228224;28;5658;-69
2023/01/04 10:56:22;;;;;;;;;;;;;;;13.06;62.21;98350.19;4225912;28;5746;-70
2023/01/04 10:58:34;;;;;;;;;;;;;;;13.06;62.35;98349.34;4230954;28;5741;-69
2023/01/04 11:00:44;;;;;;;;;;;;;;;13.05;62.21;98345.06;4227601;28;6471;-70
2023/01/04 11:02:54;;;;;;;;;;;;;;;13.07;62.05;98338.56;4228141;28;6478;-70
2023/01/04 11:05:03;;;;;;;;;;;;;;;13.11;61.98;98336.38;4233122;28;5538;-70
2023/01/04 11:07:10;;;;;;;;;;;;;;;13.10;62.18;98332.06;4234574;28;5665;-70
2023/01/04 11:09:18;;;;;;;;;;;;;;;13.10;62.20;98329.41;4231712;28;5662;-70
2023/01/04 11:11:32;;;;;;;;;;;;;;;13.12;62.16;98325.59;4230538;28;5638;-70
2023/01/04 11:13:37;;;;;;;;;;;;;;;13.13;61.84;98334.38;4232857;28;5793;-69
2023/01/04 11:15:44;;;;;;;;;;;;;;;13.09;61.84;98336.56;4233941;28;5730;-70
2023/01/04 11:17:48;;;;;;;;;;;;;;;13.08;62.16;98336.72;4233888;28;5764;-70
2023/01/04 11:19:50;;;;;;;;;;;;;;;13.06;62.05;98325.47;4234786;28;5910;-69
2023/01/04 11:21:57;;;;;;;;;;;;;;;13.07;62.05;98327.13;4220033;28;5847;-70
2023/01/04 11:24:03;;;;;;;;;;;;;;;13.08;62.11;98318.97;4226647;28;5705;-70
2023/01/04 11:26:32;;;;;;;;;;;;;;;13.06;61.96;98320.97;4224614;28;5718;-69
2023/01/04 11:28:40;;;;;;;;;;;;;;;13.08;62.06;98316.31;4233489;28;5654;-69
2023/01/04 11:30:53;;;;;;;;;;;;;;;13.09;62.27;98319.81;4232573;28;5654;-70
2023/01/04 11:33:02;;;;;;;;;;;;;;;13.09;61.98;98315.31;4224082;28;5069;-70
2023/01/04 11:35:06;;;;;;;;;;;;;;;13.09;61.89;98317.16;4226567;28;5675;-70
2023/01/04 11:37:24;;;;;;;;;;;;;;;13.13;62.04;98305.16;4224805;28;5661;-70
2023/01/04 11:39:27;;;;;;;;;;;;;;;13.15;61.80;98320.97;4233077;28;6482;-69
2023/01/04 11:41:29;;;;;;;;;;;;;;;13.17;62.12;98313.63;4232712;28;5820;-70
2023/01/04 11:43:33;;;;;;;;;;;;;;;13.15;62.02;98319.13;4224382;28;5667;-69
2023/01/04 11:45:37;;;;;;;;;;;;;;;13.15;62.08;98311.16;4227024;28;5693;-70
2023/01/04 11:47:48;;;;;;;;;;;;;;;13.20;61.98;98310.66;4232003;28;5845;-70
2023/01/04 11:49:51;;;;;;;;;;;;;;;13.21;61.75;98307.84;4225174;28;6574;-70
2023/01/04 11:51:54;;;;;;;;;;;;;;;13.22;61.91;98309.47;4232446;28;5650;-69